Aviation Digital Data Service (ADDS)

Output produced by METARs form (1030 UTC 02 September 2015)
found at http://www.aviationweather.gov/adds/metars/
 
KSPI 020520Z 0206/0306 18006KT P6SM SKC 
     FM021700 20008KT P6SM SCT080 
     FM030000 17005KT P6SM SCT080